Time;durP1;ratioP1;P1;durP2;ratioP2;P2;SDS_P1;SDS_P2;PMS_P1;PMS_P2;Temp;Humidity;BMP_temperature;BMP_pressure;BME280_temperature;BME280_humidity;BME280_pressure;Samples;Min_cycle;Max_cycle;Signal;HPM_P1;HPM_P2
2023/08/24 00:01:37;;;;;;;0.40;0.40;;;18.80;99.90;;;;;;4394576;32;20101;-74
2023/08/24 00:04:03;;;;;;;0.30;0.30;;;18.80;99.90;;;;;;4394322;32;20119;-74
2023/08/24 00:06:28;;;;;;;0.30;0.30;;;18.80;99.90;;;;;;4394887;32;20087;-75
2023/08/24 00:08:54;;;;;;;0.43;0.43;;;18.80;99.90;;;;;;4394356;32;20861;-74
2023/08/24 00:11:20;;;;;;;0.43;0.40;;;18.80;99.90;;;;;;4393874;32;20110;-75
2023/08/24 00:13:49;;;;;;;0.60;0.60;;;18.80;99.90;;;;;;4394782;32;20099;-74
2023/08/24 00:16:17;;;;;;;0.50;0.50;;;18.80;99.90;;;;;;4394800;32;20120;-74
2023/08/24 00:18:42;;;;;;;0.47;0.47;;;18.80;99.90;;;;;;4397156;32;20090;-74
2023/08/24 00:21:08;;;;;;;0.50;0.50;;;18.80;99.90;;;;;;4394367;32;20074;-75
2023/08/24 00:23:33;;;;;;;0.32;0.32;;;18.70;99.90;;;;;;4394795;32;20086;-75
2023/08/24 00:25:59;;;;;;;0.55;0.50;;;18.70;99.90;;;;;;4395442;32;20070;-75
2023/08/24 00:28:25;;;;;;;0.90;0.60;;;18.70;99.90;;;;;;4395832;32;20093;-74
2023/08/24 00:30:51;;;;;;;1.08;0.70;;;18.70;99.90;;;;;;4389716;32;20122;-76
2023/08/24 00:33:16;;;;;;;1.75;0.88;;;18.70;99.90;;;;;;4377007;32;20093;-77
2023/08/24 00:35:42;;;;;;;7.62;1.48;;;18.70;99.90;;;;;;4376006;32;20094;-77
2023/08/24 00:38:07;;;;;;;0.65;0.65;;;18.70;99.90;;;;;;4377745;32;20070;-77
2023/08/24 00:40:34;;;;;;;1.85;0.62;;;18.70;99.90;;;;;;4378369;32;20103;-75
2023/08/24 00:42:59;;;;;;;0.50;0.50;;;18.70;99.90;;;;;;4394077;32;20169;-75
2023/08/24 00:45:25;;;;;;;0.43;0.43;;;18.70;99.90;;;;;;4395237;32;20078;-73
2023/08/24 00:47:52;;;;;;;1.27;0.80;;;18.70;99.90;;;;;;4394918;32;20235;-75
2023/08/24 00:50:17;;;;;;;0.60;0.60;;;18.50;99.90;;;;;;4394147;32;20153;-74
2023/08/24 00:52:43;;;;;;;1.10;0.50;;;18.50;99.90;;;;;;4397478;32;20134;-75
2023/08/24 00:55:09;;;;;;;9.50;0.80;;;18.50;99.90;;;;;;4396623;32;20074;-76
2023/08/24 00:57:37;;;;;;;0.85;0.50;;;18.40;99.90;;;;;;4398735;32;20076;-75
2023/08/24 01:00:05;;;;;;;0.60;0.60;;;18.40;99.90;;;;;;4398081;32;20102;-75
2023/08/24 01:02:31;;;;;;;0.52;0.50;;;18.40;99.90;;;;;;4394877;32;20110;-73
2023/08/24 01:04:58;;;;;;;0.65;0.65;;;18.30;99.90;;;;;;4396809;32;20299;-75
2023/08/24 01:07:23;;;;;;;2.87;1.55;;;18.20;99.90;;;;;;4396317;32;20089;-75
2023/08/24 01:09:49;;;;;;;0.68;0.68;;;18.30;99.90;;;;;;4397744;32;20086;-75
2023/08/24 01:12:54;;;;;;;0.82;0.62;;;18.30;99.90;;;;;;4397065;32;20110;-75
2023/08/24 01:15:32;;;;;;;0.43;0.43;;;18.30;99.90;;;;;;4389881;32;20058;-75
2023/08/24 01:18:04;;;;;;;0.77;0.77;;;18.20;99.90;;;;;;4397111;32;20110;-75
2023/08/24 01:20:33;;;;;;;0.50;0.50;;;;;;;;;;4396819;32;20063;-76
2023/08/24 01:23:29;;;;;;;0.68;0.68;;;18.20;99.90;;;;;;4397802;32;20075;-75
2023/08/24 01:26:17;;;;;;;0.40;0.40;;;18.20;99.90;;;;;;4396445;32;20090;-75
2023/08/24 01:28:44;;;;;;;1.70;1.10;;;18.10;99.90;;;;;;4397402;32;20118;-75
2023/08/24 01:31:09;;;;;;;1.65;0.70;;;18.10;99.90;;;;;;4394964;32;20095;-75
2023/08/24 01:33:35;;;;;;;3.10;0.77;;;18.10;99.90;;;;;;4396650;32;20082;-75
2023/08/24 01:36:00;;;;;;;1.02;0.85;;;18.10;99.90;;;;;;4396347;32;20101;-73
2023/08/24 01:38:26;;;;;;;1.37;1.15;;;18.10;99.90;;;;;;4395147;32;20150;-75
2023/08/24 01:41:16;;;;;;;0.98;0.60;;;18.10;99.90;;;;;;4395647;32;20090;-75
2023/08/24 01:43:45;;;;;;;0.52;0.52;;;18.10;99.90;;;;;;4395449;32;20077;-75
2023/08/24 01:46:15;;;;;;;1.33;0.70;;;18.00;99.90;;;;;;4397672;32;20188;-75
2023/08/24 01:48:41;;;;;;;2.35;0.98;;;18.00;99.90;;;;;;4397830;32;20066;-75
2023/08/24 01:51:08;;;;;;;0.80;0.80;;;18.00;99.90;;;;;;4395934;32;20119;-75
2023/08/24 01:53:33;;;;;;;10.25;1.35;;;18.00;99.90;;;;;;4397886;32;20086;-75
2023/08/24 01:55:59;;;;;;;0.45;0.45;;;18.00;99.90;;;;;;4397799;32;20038;-75
2023/08/24 01:58:24;;;;;;;0.77;0.60;;;18.10;99.90;;;;;;4397402;32;20087;-75
2023/08/24 02:00:50;;;;;;;0.50;0.50;;;18.20;99.90;;;;;;4391128;32;20079;-73
2023/08/24 02:03:15;;;;;;;1.05;0.88;;;18.30;99.90;;;;;;4387069;32;20086;-73
2023/08/24 02:05:41;;;;;;;14.80;2.15;;;18.30;99.90;;;;;;4386251;32;20094;-75
2023/08/24 02:08:06;;;;;;;3.75;0.95;;;18.20;99.90;;;;;;4386719;32;20140;-74
2023/08/24 02:10:32;;;;;;;0.90;0.82;;;18.30;99.90;;;;;;4385355;32;21270;-74
2023/08/24 02:12:57;;;;;;;0.52;0.50;;;18.30;99.90;;;;;;4387446;32;20066;-73
2023/08/24 02:15:23;;;;;;;1.40;0.85;;;18.20;99.90;;;;;;4388091;32;20153;-73
2023/08/24 02:17:48;;;;;;;1.23;0.68;;;18.20;99.90;;;;;;4385330;32;20066;-74
2023/08/24 02:20:14;;;;;;;0.93;0.70;;;18.20;99.90;;;;;;4385678;32;20070;-74
2023/08/24 02:22:39;;;;;;;0.52;0.52;;;18.30;99.90;;;;;;4385265;32;20066;-73
2023/08/24 02:25:05;;;;;;;0.50;0.50;;;18.40;99.90;;;;;;4385034;32;21264;-74
2023/08/24 02:27:32;;;;;;;0.50;0.50;;;18.60;99.90;;;;;;4384853;32;20089;-73
2023/08/24 02:29:57;;;;;;;0.62;0.62;;;18.60;99.90;;;;;;4384316;32;20225;-75
2023/08/24 02:32:23;;;;;;;0.80;0.80;;;18.60;99.90;;;;;;4382553;32;20573;-74
2023/08/24 02:34:48;;;;;;;0.50;0.50;;;18.50;99.90;;;;;;4384060;32;20122;-73
2023/08/24 02:37:14;;;;;;;0.60;0.60;;;18.30;99.90;;;;;;4383038;32;20113;-74
2023/08/24 02:39:39;;;;;;;1.23;1.00;;;18.30;99.90;;;;;;4383749;32;20101;-74
2023/08/24 02:42:05;;;;;;;0.75;0.75;;;18.30;99.90;;;;;;4382987;32;20107;-74
2023/08/24 02:44:31;;;;;;;0.65;0.57;;;18.30;99.90;;;;;;4384567;32;20193;-74
2023/08/24 02:46:57;;;;;;;0.50;0.50;;;18.30;99.90;;;;;;4382890;32;20083;-75
2023/08/24 02:49:23;;;;;;;1.65;0.55;;;18.40;99.90;;;;;;4383375;32;20542;-73
2023/08/24 02:51:48;;;;;;;0.30;0.30;;;18.40;99.90;;;;;;4377999;32;20087;-76
2023/08/24 02:54:14;;;;;;;0.35;0.35;;;18.40;99.90;;;;;;4378449;32;20081;-76
2023/08/24 02:56:39;;;;;;;0.57;0.57;;;18.50;99.90;;;;;;4376511;32;20075;-75
2023/08/24 02:59:05;;;;;;;1.67;1.10;;;18.60;99.90;;;;;;4376601;32;20125;-76
2023/08/24 03:01:30;;;;;;;0.40;0.40;;;18.50;99.90;;;;;;4376274;32;20153;-76
2023/08/24 03:03:56;;;;;;;0.98;0.70;;;18.50;99.90;;;;;;4376772;32;20090;-76
2023/08/24 03:06:23;;;;;;;0.60;0.60;;;18.40;99.90;;;;;;4376806;32;20125;-76
2023/08/24 03:08:49;;;;;;;0.70;0.70;;;18.40;99.90;;;;;;4376472;32;20074;-76
2023/08/24 03:11:14;;;;;;;0.50;0.50;;;18.40;99.90;;;;;;4374820;32;20533;-76
2023/08/24 03:13:40;;;;;;;0.50;0.50;;;18.50;99.90;;;;;;4375864;32;20117;-76
2023/08/24 03:16:06;;;;;;;0.50;0.50;;;18.50;99.90;;;;;;4376643;32;20069;-76
2023/08/24 03:18:32;;;;;;;0.40;0.40;;;18.50;99.90;;;;;;4376939;32;20557;-76
2023/08/24 03:20:57;;;;;;;0.30;0.30;;;18.60;99.90;;;;;;4378299;32;20093;-76
2023/08/24 03:23:23;;;;;;;0.40;0.40;;;18.70;99.90;;;;;;4378500;32;20158;-76
2023/08/24 03:25:48;;;;;;;0.98;0.82;;;18.80;99.90;;;;;;4376608;32;20082;-76
2023/08/24 03:28:14;;;;;;;0.40;0.40;;;18.80;99.90;;;;;;4377818;32;20107;-76
2023/08/24 03:30:47;;;;;;;3.30;0.70;;;18.80;99.90;;;;;;4376565;32;20246;-76
2023/08/24 03:33:13;;;;;;;0.37;0.37;;;18.80;99.90;;;;;;4376252;32;20094;-75
2023/08/24 03:35:39;;;;;;;2.05;0.75;;;18.70;99.90;;;;;;4376882;32;20121;-76
2023/08/24 03:38:05;;;;;;;0.30;0.30;;;18.60;99.90;;;;;;4378117;32;20198;-76
2023/08/24 03:40:30;;;;;;;1.42;0.95;;;18.60;99.90;;;;;;4376576;32;20090;-76
2023/08/24 03:42:56;;;;;;;0.60;0.43;;;18.60;99.90;;;;;;4377340;32;21256;-76
2023/08/24 03:45:22;;;;;;;0.52;0.52;;;18.60;99.90;;;;;;4375934;32;20573;-76
2023/08/24 03:47:48;;;;;;;0.40;0.40;;;18.70;99.90;;;;;;4376790;32;20423;-76
2023/08/24 03:50:14;;;;;;;0.40;0.40;;;18.70;99.90;;;;;;4375167;32;20118;-76
2023/08/24 03:52:39;;;;;;;0.60;0.60;;;18.50;99.90;;;;;;4375963;32;20089;-76
2023/08/24 03:55:06;;;;;;;0.55;0.55;;;18.60;99.90;;;;;;4376576;32;20073;-76
2023/08/24 03:57:32;;;;;;;0.60;0.37;;;18.50;99.90;;;;;;4375855;32;20083;-76
2023/08/24 03:59:57;;;;;;;0.50;0.50;;;18.50;99.90;;;;;;4375303;32;20545;-76
2023/08/24 04:02:23;;;;;;;0.50;0.50;;;18.40;99.90;;;;;;4386083;32;20086;-75
2023/08/24 04:04:50;;;;;;;4.15;0.70;;;18.40;99.90;;;;;;4394643;32;20071;-75
2023/08/24 04:07:15;;;;;;;0.40;0.37;;;18.40;99.90;;;;;;4396828;32;20078;-75
2023/08/24 04:09:41;;;;;;;0.50;0.50;;;18.40;99.90;;;;;;4396677;32;20066;-75
2023/08/24 04:12:06;;;;;;;0.50;0.50;;;18.40;99.90;;;;;;4394923;32;20110;-74
2023/08/24 04:14:32;;;;;;;0.50;0.50;;;18.30;99.90;;;;;;4396002;32;20050;-74
2023/08/24 04:16:57;;;;;;;0.37;0.37;;;18.40;99.90;;;;;;4395317;32;20095;-75
2023/08/24 04:19:23;;;;;;;0.40;0.40;;;18.40;99.90;;;;;;4396987;32;20087;-74
2023/08/24 04:21:48;;;;;;;0.82;0.70;;;18.40;99.90;;;;;;4394237;32;20121;-75
2023/08/24 04:24:14;;;;;;;0.43;0.43;;;18.40;99.90;;;;;;4396623;32;20078;-75
2023/08/24 04:26:39;;;;;;;0.80;0.75;;;18.50;99.90;;;;;;4394751;32;20047;-74
2023/08/24 04:29:04;;;;;;;4.28;0.73;;;18.50;99.90;;;;;;4394146;32;20094;-74
2023/08/24 04:31:30;;;;;;;0.40;0.40;;;18.50;99.90;;;;;;4395403;32;20128;-75
2023/08/24 04:33:55;;;;;;;2.05;1.08;;;18.50;99.90;;;;;;4395549;32;20073;-75
2023/08/24 04:36:21;;;;;;;0.40;0.40;;;18.50;99.90;;;;;;4395899;32;20070;-74
2023/08/24 04:38:46;;;;;;;0.43;0.43;;;18.50;99.90;;;;;;4396031;32;20092;-75
2023/08/24 04:41:12;;;;;;;0.40;0.40;;;18.60;99.90;;;;;;4394773;32;20083;-74
2023/08/24 04:43:37;;;;;;;0.60;0.60;;;18.50;99.90;;;;;;4397279;32;20066;-75
2023/08/24 04:46:03;;;;;;;0.60;0.50;;;18.50;99.90;;;;;;4394695;32;20089;-74
2023/08/24 04:48:36;;;;;;;3.33;0.77;;;18.60;99.90;;;;;;4396982;32;20079;-75
2023/08/24 04:51:02;;;;;;;0.57;0.57;;;18.60;99.90;;;;;;4394590;32;20113;-75
2023/08/24 04:53:28;;;;;;;0.52;0.52;;;18.70;99.90;;;;;;4395534;32;20079;-75
2023/08/24 04:55:53;;;;;;;0.52;0.52;;;18.80;99.90;;;;;;4397278;32;20054;-75
2023/08/24 04:58:19;;;;;;;0.95;0.90;;;18.80;99.90;;;;;;4394765;32;20095;-75
2023/08/24 05:00:44;;;;;;;0.40;0.40;;;18.70;99.90;;;;;;4395203;32;20082;-74
2023/08/24 05:03:10;;;;;;;0.82;0.73;;;18.80;99.90;;;;;;4396039;32;20078;-75
2023/08/24 05:05:36;;;;;;;0.40;0.40;;;18.70;99.90;;;;;;4396477;32;20054;-73
2023/08/24 05:08:05;;;;;;;0.40;0.40;;;18.70;99.90;;;;;;4395927;32;20071;-73
2023/08/24 05:10:32;;;;;;;0.50;0.50;;;18.80;99.90;;;;;;4395613;32;20051;-74
2023/08/24 05:12:58;;;;;;;0.70;0.57;;;18.80;99.90;;;;;;4377461;32;20091;-72
2023/08/24 05:15:24;;;;;;;0.47;0.47;;;18.80;99.90;;;;;;4376037;32;20099;-73
2023/08/24 05:17:52;;;;;;;1.15;0.65;;;18.80;99.90;;;;;;4375878;32;20067;-73
2023/08/24 05:20:18;;;;;;;0.90;0.75;;;18.90;99.90;;;;;;4375613;32;20086;-73
2023/08/24 05:22:43;;;;;;;0.50;0.50;;;19.00;99.90;;;;;;4376897;32;20062;-72
2023/08/24 05:25:09;;;;;;;0.40;0.40;;;19.10;99.90;;;;;;4376938;32;20581;-72
2023/08/24 05:27:35;;;;;;;0.50;0.50;;;19.10;99.90;;;;;;4376788;32;20083;-72
2023/08/24 05:30:00;;;;;;;0.50;0.50;;;19.10;99.90;;;;;;4375781;32;20082;-72
2023/08/24 05:32:25;;;;;;;0.40;0.40;;;19.10;99.90;;;;;;4376691;32;20102;-76
2023/08/24 05:34:51;;;;;;;0.60;0.60;;;19.10;99.90;;;;;;4374990;32;20090;-75
2023/08/24 05:37:16;;;;;;;0.50;0.50;;;19.10;99.90;;;;;;4375371;32;21242;-75
2023/08/24 05:39:42;;;;;;;7.12;1.05;;;19.20;99.90;;;;;;4374234;32;20098;-76
2023/08/24 05:42:09;;;;;;;0.40;0.40;;;19.20;99.90;;;;;;4377476;32;20162;-75
2023/08/24 05:44:34;;;;;;;0.47;0.47;;;19.30;99.90;;;;;;4376777;32;20094;-75
2023/08/24 05:47:00;;;;;;;0.50;0.50;;;19.30;99.90;;;;;;4377539;32;20067;-76
2023/08/24 05:49:25;;;;;;;1.25;0.73;;;19.30;99.90;;;;;;4376809;32;20102;-75
2023/08/24 05:51:52;;;;;;;0.45;0.45;;;19.40;99.90;;;;;;4377161;32;20106;-75
2023/08/24 05:54:18;;;;;;;0.55;0.55;;;19.40;99.90;;;;;;4373867;32;20122;-76
2023/08/24 05:56:46;;;;;;;1.42;0.60;;;19.40;99.90;;;;;;4374443;32;20078;-75
2023/08/24 05:59:11;;;;;;;0.50;0.45;;;19.40;99.90;;;;;;4376875;32;20553;-75
2023/08/24 06:01:38;;;;;;;1.87;0.75;;;19.40;99.90;;;;;;4376391;32;20098;-75
2023/08/24 06:04:05;;;;;;;1.02;1.02;;;19.40;99.90;;;;;;4378144;32;20090;-76
2023/08/24 06:06:31;;;;;;;0.47;0.47;;;19.50;99.90;;;;;;4378966;32;20494;-76
2023/08/24 06:08:56;;;;;;;0.95;0.80;;;19.60;99.90;;;;;;4379385;32;20069;-76
2023/08/24 06:11:22;;;;;;;0.60;0.60;;;19.60;99.90;;;;;;4376437;32;21294;-75
2023/08/24 06:13:49;;;;;;;0.30;0.30;;;19.70;99.90;;;;;;4376767;32;20530;-76
2023/08/24 06:16:14;;;;;;;0.60;0.60;;;19.70;99.90;;;;;;4377108;32;20090;-75
2023/08/24 06:18:40;;;;;;;0.50;0.50;;;19.80;99.90;;;;;;4374472;32;20070;-76
2023/08/24 06:21:05;;;;;;;4.32;1.58;;;19.90;99.90;;;;;;4369872;32;20066;-73
2023/08/24 06:23:31;;;;;;;0.70;0.70;;;19.90;99.90;;;;;;4377452;32;20066;-73
2023/08/24 06:25:56;;;;;;;4.57;1.35;;;20.00;99.90;;;;;;4374343;32;20164;-74
2023/08/24 06:28:22;;;;;;;0.60;0.60;;;20.10;99.90;;;;;;4367524;32;20066;-73
2023/08/24 06:30:47;;;;;;;0.50;0.50;;;20.20;99.90;;;;;;4369547;32;20098;-73
2023/08/24 06:33:13;;;;;;;0.68;0.68;;;20.30;99.90;;;;;;4369862;32;20098;-72
2023/08/24 06:35:40;;;;;;;0.40;0.40;;;20.40;99.90;;;;;;4376937;32;20145;-73
2023/08/24 06:38:05;;;;;;;3.40;1.60;;;20.30;99.90;;;;;;4375716;32;20066;-74
2023/08/24 06:40:31;;;;;;;0.32;0.32;;;20.40;99.90;;;;;;4375507;32;20090;-74
2023/08/24 06:42:57;;;;;;;0.40;0.40;;;20.40;99.90;;;;;;4374046;32;20082;-74
2023/08/24 06:45:22;;;;;;;0.52;0.52;;;20.60;99.90;;;;;;4368077;32;20189;-74
2023/08/24 06:47:48;;;;;;;0.40;0.40;;;20.70;99.90;;;;;;4367564;32;20870;-74
2023/08/24 06:50:15;;;;;;;0.52;0.45;;;20.80;99.90;;;;;;4364330;32;20090;-75
2023/08/24 06:52:40;;;;;;;0.40;0.40;;;20.90;99.90;;;;;;4359416;32;20459;-74
2023/08/24 06:55:08;;;;;;;0.62;0.55;;;21.00;99.90;;;;;;4365316;32;20093;-74
2023/08/24 06:57:33;;;;;;;0.30;0.30;;;21.10;99.90;;;;;;4359922;32;20186;-73
2023/08/24 07:00:00;;;;;;;0.40;0.40;;;21.10;99.90;;;;;;4363154;32;20089;-74
2023/08/24 07:02:25;;;;;;;0.75;0.75;;;21.30;99.90;;;;;;4358998;32;20970;-74
2023/08/24 07:04:51;;;;;;;0.57;0.57;;;21.30;99.90;;;;;;4362412;32;20161;-73
2023/08/24 07:07:16;;;;;;;0.98;0.55;;;21.30;99.90;;;;;;4365958;32;20786;-75
2023/08/24 07:09:41;;;;;;;0.40;0.40;;;21.40;99.90;;;;;;4363797;32;20098;-74
2023/08/24 07:12:09;;;;;;;0.32;0.32;;;21.40;99.90;;;;;;4371945;32;20102;-75
2023/08/24 07:14:35;;;;;;;1.23;0.60;;;21.50;99.90;;;;;;4365388;32;20105;-76
2023/08/24 07:17:01;;;;;;;0.90;0.35;;;21.60;99.90;;;;;;4356736;32;20074;-76
2023/08/24 07:19:27;;;;;;;0.40;0.40;;;21.60;99.90;;;;;;4357274;32;20109;-75
2023/08/24 07:21:52;;;;;;;0.90;0.40;;;21.70;99.90;;;;;;4362187;32;20115;-75
2023/08/24 07:24:20;;;;;;;1.55;0.70;;;21.80;99.90;;;;;;4366791;32;21237;-74
2023/08/24 07:26:46;;;;;;;0.80;0.45;;;21.90;99.90;;;;;;4369477;32;21432;-76
2023/08/24 07:29:12;;;;;;;15.57;0.60;;;22.00;99.90;;;;;;4362633;32;20150;-75
2023/08/24 07:31:37;;;;;;;0.50;0.50;;;22.00;99.90;;;;;;4369455;32;20094;-74
2023/08/24 07:34:04;;;;;;;0.80;0.80;;;22.10;99.90;;;;;;4366030;32;20672;-75
2023/08/24 07:36:30;;;;;;;0.30;0.30;;;22.10;99.90;;;;;;4365092;32;20090;-75
2023/08/24 07:38:56;;;;;;;0.40;0.40;;;22.20;99.90;;;;;;4358606;32;20137;-75
2023/08/24 07:41:21;;;;;;;0.30;0.30;;;22.30;99.90;;;;;;4367769;32;20110;-75
2023/08/24 07:43:47;;;;;;;0.70;0.47;;;22.40;99.90;;;;;;4368890;32;20090;-77
2023/08/24 07:46:13;;;;;;;0.40;0.40;;;22.40;99.90;;;;;;4369962;32;20078;-75
2023/08/24 07:48:39;;;;;;;0.37;0.37;;;22.50;99.90;;;;;;4365567;32;20098;-76
2023/08/24 07:51:04;;;;;;;0.25;0.25;;;22.60;99.90;;;;;;4367399;32;20098;-76
2023/08/24 07:53:32;;;;;;;0.30;0.30;;;22.70;99.90;;;;;;4353126;32;20116;-75
2023/08/24 07:55:58;;;;;;;3.90;1.85;;;22.80;99.90;;;;;;4360899;32;20247;-75
2023/08/24 07:58:24;;;;;;;0.57;0.57;;;22.90;99.90;;;;;;4350362;32;20515;-75
2023/08/24 08:00:51;;;;;;;0.30;0.30;;;23.00;99.90;;;;;;4353764;32;20599;-75
2023/08/24 08:03:18;;;;;;;0.20;0.20;;;23.20;99.90;;;;;;4367043;32;20078;-75
2023/08/24 08:05:43;;;;;;;0.22;0.22;;;23.20;99.90;;;;;;4360590;32;20227;-75
2023/08/24 08:08:09;;;;;;;0.30;0.30;;;23.30;99.90;;;;;;4360240;32;20284;-75
2023/08/24 08:10:34;;;;;;;0.40;0.40;;;23.40;99.90;;;;;;4355674;32;21365;-75
2023/08/24 08:12:59;;;;;;;0.32;0.32;;;23.50;99.90;;;;;;4362628;32;20133;-75
2023/08/24 08:15:26;;;;;;;0.40;0.40;;;23.60;99.90;;;;;;4359263;32;20600;-75
2023/08/24 08:17:52;;;;;;;0.25;0.25;;;23.60;99.90;;;;;;4359716;32;20099;-75
2023/08/24 08:20:17;;;;;;;0.30;0.30;;;23.60;99.90;;;;;;4364410;32;20128;-76
2023/08/24 08:22:43;;;;;;;2.97;0.77;;;23.60;99.90;;;;;;4364430;32;20239;-75
2023/08/24 08:25:08;;;;;;;0.52;0.52;;;23.60;99.90;;;;;;4362765;32;20122;-76
2023/08/24 08:27:34;;;;;;;0.30;0.30;;;23.50;99.90;;;;;;4359481;32;20198;-76
2023/08/24 08:29:59;;;;;;;0.20;0.20;;;23.60;99.90;;;;;;4362825;32;20074;-75
2023/08/24 08:32:27;;;;;;;0.28;0.20;;;23.60;99.90;;;;;;4364687;32;20739;-76
2023/08/24 08:34:56;;;;;;;0.30;0.30;;;23.60;99.90;;;;;;4365991;32;20100;-75
2023/08/24 08:37:22;;;;;;;5.03;0.47;;;23.60;99.90;;;;;;4366759;32;20320;-76
2023/08/24 08:39:47;;;;;;;0.30;0.30;;;23.60;99.90;;;;;;4372699;32;20715;-75
2023/08/24 08:42:14;;;;;;;0.30;0.30;;;23.60;99.90;;;;;;4363037;32;21027;-76
2023/08/24 08:44:42;;;;;;;0.30;0.30;;;23.60;99.90;;;;;;4357131;32;20082;-76
2023/08/24 08:47:11;;;;;;;15.00;0.60;;;23.70;99.90;;;;;;4359197;32;20143;-77
2023/08/24 08:49:39;;;;;;;0.30;0.30;;;23.80;99.90;;;;;;4364944;32;20053;-76
2023/08/24 08:52:16;;;;;;;10.60;1.10;;;23.80;99.90;;;;;;4364266;32;20162;-80
2023/08/24 08:54:42;;;;;;;0.25;0.25;;;23.80;99.90;;;;;;4362261;32;20054;-76
2023/08/24 08:57:09;;;;;;;0.40;0.40;;;23.90;99.90;;;;;;4364208;32;20617;-79
2023/08/24 08:59:36;;;;;;;8.32;0.73;;;23.90;99.90;;;;;;4357473;32;20881;-76
2023/08/24 09:02:02;;;;;;;0.62;0.62;;;23.90;99.90;;;;;;4353117;32;20140;-75
2023/08/24 09:04:31;;;;;;;0.35;0.35;;;23.90;99.90;;;;;;4360152;32;20266;-75
2023/08/24 09:06:57;;;;;;;1.85;0.50;;;23.90;99.90;;;;;;4359676;32;20666;-75
2023/08/24 09:09:22;;;;;;;0.60;0.40;;;23.90;99.90;;;;;;4361527;32;20134;-75
2023/08/24 09:11:48;;;;;;;0.32;0.28;;;23.80;99.90;;;;;;4367311;32;20067;-76
2023/08/24 09:14:14;;;;;;;0.30;0.30;;;23.80;99.90;;;;;;4364921;32;20082;-75
2023/08/24 09:16:42;;;;;;;0.20;0.20;;;23.90;99.90;;;;;;4366904;32;20413;-75
2023/08/24 09:19:11;;;;;;;0.30;0.30;;;24.00;99.90;;;;;;4373672;32;20168;-75
2023/08/24 09:21:37;;;;;;;0.45;0.35;;;24.10;99.90;;;;;;4367408;32;20089;-75
2023/08/24 09:24:04;;;;;;;1.27;0.50;;;24.10;99.90;;;;;;4363791;32;22092;-76
2023/08/24 09:26:33;;;;;;;1.12;0.70;;;24.10;99.90;;;;;;4369956;32;20107;-75
2023/08/24 09:29:00;;;;;;;0.47;0.47;;;24.10;99.90;;;;;;4369453;32;20209;-76
2023/08/24 09:31:37;;;;;;;0.40;0.40;;;24.10;99.90;;;;;;4367599;32;20096;-75
2023/08/24 09:34:03;;;;;;;0.40;0.40;;;24.00;99.90;;;;;;4369315;32;20819;-76
2023/08/24 09:36:31;;;;;;;0.30;0.30;;;23.90;99.90;;;;;;4368628;32;20067;-76
2023/08/24 09:38:59;;;;;;;0.40;0.40;;;23.90;99.90;;;;;;4368866;32;20125;-76
2023/08/24 09:41:36;;;;;;;0.25;0.25;;;23.90;99.90;;;;;;4370645;32;20145;-76
2023/08/24 09:44:05;;;;;;;0.40;0.40;;;24.10;99.90;;;;;;4345412;32;20079;-76
2023/08/24 09:46:31;;;;;;;0.20;0.20;;;24.50;99.90;;;;;;4362355;32;20580;-76
2023/08/24 09:48:59;;;;;;;0.28;0.28;;;24.60;99.90;;;;;;4367717;32;20513;-75
2023/08/24 09:51:26;;;;;;;0.20;0.20;;;24.80;99.90;;;;;;4369695;32;20098;-73
2023/08/24 09:53:56;;;;;;;0.85;0.70;;;25.00;99.90;;;;;;4373304;32;20094;-76
2023/08/24 09:56:25;;;;;;;6.70;0.95;;;25.20;99.90;;;;;;4382010;32;20105;-76
2023/08/24 09:58:53;;;;;;;0.50;0.50;;;25.40;99.90;;;;;;4375840;32;20096;-73
2023/08/24 10:01:20;;;;;;;0.30;0.30;;;25.40;99.90;;;;;;4366201;32;20102;-76
2023/08/24 10:03:48;;;;;;;0.37;0.37;;;25.60;99.90;;;;;;4366774;32;20099;-75
2023/08/24 10:06:14;;;;;;;0.35;0.35;;;25.70;99.90;;;;;;4360501;32;22067;-74
2023/08/24 10:08:46;;;;;;;1.55;0.60;;;25.90;99.90;;;;;;4369777;32;20139;-74
2023/08/24 10:11:16;;;;;;;0.05;0.05;;;26.20;99.90;;;;;;4369172;32;20145;-75
2023/08/24 10:13:57;;;;;;;0.37;0.37;;;26.40;99.90;;;;;;4375672;32;20106;-73
2023/08/24 10:16:24;;;;;;;0.28;0.28;;;26.50;99.90;;;;;;4379930;32;20635;-75
2023/08/24 10:18:51;;;;;;;0.28;0.28;;;26.60;99.90;;;;;;4377319;32;20849;-75
2023/08/24 10:21:17;;;;;;;1.25;0.70;;;26.70;99.90;;;;;;4383012;32;20077;-75
2023/08/24 10:23:45;;;;;;;0.25;0.22;;;26.80;99.90;;;;;;4378178;32;20063;-75
2023/08/24 10:26:12;;;;;;;0.30;0.30;;;26.90;99.90;;;;;;4373900;32;20537;-75
2023/08/24 10:28:38;;;;;;;0.10;0.10;;;27.30;99.90;;;;;;4373709;32;20070;-75
2023/08/24 10:31:06;;;;;;;0.20;0.20;;;27.50;99.90;;;;;;4374965;32;20490;-75
2023/08/24 10:33:34;;;;;;;0.30;0.25;;;27.50;99.90;;;;;;4370399;32;20103;-75
2023/08/24 10:35:59;;;;;;;0.10;0.10;;;27.70;99.90;;;;;;4368007;32;20086;-76
2023/08/24 10:38:28;;;;;;;0.30;0.30;;;27.60;99.90;;;;;;4371740;32;20087;-76
2023/08/24 10:40:54;;;;;;;0.43;0.43;;;27.80;99.90;;;;;;4365852;32;20121;-76
2023/08/24 10:43:21;;;;;;;0.50;0.50;;;28.00;99.90;;;;;;4376138;32;20505;-75
2023/08/24 10:45:57;;;;;;;0.20;0.20;;;27.80;99.90;;;;;;4376287;32;20089;-76
2023/08/24 10:48:24;;;;;;;0.52;0.35;;;28.20;99.90;;;;;;4371615;32;20082;-76
2023/08/24 10:51:19;;;;;;;1.50;0.32;;;28.30;99.90;;;;;;4372630;32;20410;-76
2023/08/24 10:53:46;;;;;;;0.30;0.20;;;28.40;99.50;;;;;;4363831;32;20233;-76
2023/08/24 10:56:14;;;;;;;1.08;0.40;;;28.60;99.40;;;;;;4365235;32;20074;-78
2023/08/24 10:58:40;;;;;;;0.35;0.35;;;28.70;99.20;;;;;;4369860;32;21033;-77
2023/08/24 11:01:05;;;;;;;0.10;0.10;;;28.60;98.90;;;;;;4368423;32;20165;-77
2023/08/24 11:03:32;;;;;;;0.20;0.20;;;28.60;98.70;;;;;;4364665;32;20123;-78
2023/08/24 11:05:58;;;;;;;1.92;0.32;;;29.00;99.20;;;;;;4362369;32;20103;-78
2023/08/24 11:08:44;;;;;;;1.35;0.73;;;29.30;98.90;;;;;;4369612;32;20142;-79
2023/08/24 11:11:19;;;;;;;0.20;0.20;;;29.40;98.30;;;;;;4364345;32;20089;-76
2023/08/24 11:14:13;;;;;;;0.20;0.20;;;29.30;97.90;;;;;;4363046;32;20951;-75
2023/08/24 11:16:39;;;;;;;0.10;0.10;;;29.40;97.80;;;;;;4365876;32;20122;-78
2023/08/24 11:19:06;;;;;;;0.20;0.20;;;29.40;97.40;;;;;;4365557;32;20115;-75
2023/08/24 11:21:33;;;;;;;0.10;0.10;;;29.60;97.90;;;;;;4367592;32;20225;-76
2023/08/24 11:24:00;;;;;;;1.87;0.30;;;29.60;97.40;;;;;;4370608;32;20541;-76
2023/08/24 11:26:25;;;;;;;3.58;0.32;;;29.80;97.10;;;;;;4360768;32;20521;-76
2023/08/24 11:28:54;;;;;;;0.30;0.30;;;29.70;96.10;;;;;;4367396;32;20561;-76
2023/08/24 11:31:21;;;;;;;0.20;0.20;;;29.70;96.50;;;;;;4368445;32;20105;-78
2023/08/24 11:33:47;;;;;;;0.65;0.57;;;29.90;97.40;;;;;;4375038;32;20070;-77
2023/08/24 11:36:13;;;;;;;0.20;0.20;;;30.40;95.80;;;;;;4372657;32;20554;-77
2023/08/24 11:38:41;;;;;;;0.10;0.10;;;30.60;95.20;;;;;;4368729;32;20086;-78
2023/08/24 11:41:16;;;;;;;4.60;1.30;;;30.70;94.90;;;;;;4368353;32;20292;-78
2023/08/24 11:43:43;;;;;;;0.20;0.20;;;30.60;96.20;;;;;;4371073;32;20098;-78
2023/08/24 11:46:09;;;;;;;0.22;0.22;;;30.80;95.20;;;;;;4362737;32;20137;-78
2023/08/24 11:48:36;;;;;;;0.20;0.20;;;31.20;94.50;;;;;;4360236;32;93494;-79
2023/08/24 11:51:02;;;;;;;0.10;0.10;;;31.50;94.10;;;;;;4366922;32;20094;-78
2023/08/24 11:53:31;;;;;;;0.30;0.30;;;31.40;94.00;;;;;;4367299;32;20113;-78
2023/08/24 11:55:57;;;;;;;0.15;0.15;;;31.10;94.60;;;;;;4370987;32;20315;-78
2023/08/24 11:58:22;;;;;;;0.30;0.30;;;31.50;94.40;;;;;;4371652;32;20659;-78
2023/08/24 12:00:48;;;;;;;1.10;0.73;;;31.30;94.10;;;;;;4374146;32;20511;-77
2023/08/24 12:03:14;;;;;;;0.25;0.20;;;31.80;93.50;;;;;;4369551;32;20078;-78
2023/08/24 12:05:40;;;;;;;0.22;0.20;;;31.80;93.60;;;;;;4371000;32;20145;-79
2023/08/24 12:08:06;;;;;;;0.20;0.20;;;31.80;93.50;;;;;;4363797;32;20118;-79
2023/08/24 12:10:33;;;;;;;0.30;0.30;;;31.70;93.30;;;;;;4367211;32;20082;-78
2023/08/24 12:13:06;;;;;;;0.30;0.30;;;32.10;92.60;;;;;;4371991;32;20089;-79
2023/08/24 12:15:35;;;;;;;0.20;0.20;;;32.40;92.80;;;;;;4373421;32;20102;-78
2023/08/24 12:18:16;;;;;;;0.47;0.47;;;32.40;92.30;;;;;;4367850;32;20102;-79
2023/08/24 12:20:41;;;;;;;1.42;0.60;;;32.10;92.60;;;;;;4372343;32;20110;-78
2023/08/24 12:23:10;;;;;;;0.20;0.20;;;32.30;92.30;;;;;;4367547;32;20086;-78
2023/08/24 12:25:38;;;;;;;0.43;0.30;;;32.20;92.00;;;;;;4381505;32;20090;-77
2023/08/24 12:28:12;;;;;;;0.30;0.30;;;32.50;92.30;;;;;;4368877;32;20082;-78
2023/08/24 12:30:53;;;;;;;0.37;0.37;;;32.50;92.00;;;;;;4377325;32;20151;-78
2023/08/24 12:33:28;;;;;;;0.30;0.30;;;32.50;91.80;;;;;;4378048;32;20094;-79
2023/08/24 12:35:55;;;;;;;0.90;0.30;;;32.70;91.20;;;;;;4371702;32;20101;-79
2023/08/24 12:38:21;;;;;;;0.30;0.30;;;33.40;91.50;;;;;;4369722;32;20419;-76
2023/08/24 12:40:48;;;;;;;0.43;0.40;;;33.20;90.60;;;;;;4371089;32;20095;-76
2023/08/24 12:43:14;;;;;;;0.30;0.30;;;32.90;91.30;;;;;;4376229;32;20395;-75
2023/08/24 12:45:40;;;;;;;0.20;0.20;;;32.70;90.40;;;;;;4375384;32;20087;-75
2023/08/24 12:48:07;;;;;;;0.93;0.65;;;32.70;90.80;;;;;;4373537;32;20090;-75